Time;durP1;ratioP1;P1;durP2;ratioP2;P2;SDS_P1;SDS_P2;PMS_P1;PMS_P2;Temp;Humidity;BMP_temperature;BMP_pressure;BME280_temperature;BME280_humidity;BME280_pressure;Samples;Min_cycle;Max_cycle;Signal;HPM_P1;HPM_P2
2023/01/26 00:01:16;;;;;;;;;;;21.00;34.40;;;;;;451914;262;2164;-43
2023/01/26 00:03:17;;;;;;;;;;;20.90;34.10;;;;;;465063;256;2206;-43
2023/01/26 00:05:18;;;;;;;;;;;21.00;33.40;;;;;;444257;266;1635;-43
2023/01/26 00:07:20;;;;;;;;;;;20.90;33.30;;;;;;444417;267;1644;-43
2023/01/26 00:09:21;;;;;;;;;;;21.00;33.60;;;;;;444327;267;1645;-43
2023/01/26 00:11:23;;;;;;;;;;;21.10;34.50;;;;;;444343;267;1771;-43
2023/01/26 00:13:24;;;;;;;;;;;20.90;33.20;;;;;;452070;262;2097;-44
2023/01/26 00:15:25;;;;;;;;;;;21.00;33.30;;;;;;464999;256;2086;-43
2023/01/26 00:17:26;;;;;;;;;;;21.10;36.30;;;;;;463228;256;1945;-43
2023/01/26 00:19:28;;;;;;;;;;;21.10;36.10;;;;;;463209;256;2207;-43
2023/01/26 00:21:29;;;;;;;;;;;21.00;36.40;;;;;;463143;256;2968;-43
2023/01/26 00:23:31;;;;;;;;;;;20.90;33.30;;;;;;463266;256;2191;-43
2023/01/26 00:25:32;;;;;;;;;;;20.90;33.30;;;;;;444455;266;1724;-43
2023/01/26 00:27:33;;;;;;;;;;;21.00;33.90;;;;;;452271;262;1754;-43
2023/01/26 00:29:34;;;;;;;;;;;21.00;35.90;;;;;;465048;256;2481;-43
2023/01/26 00:31:36;;;;;;;;;;;20.90;37.60;;;;;;463201;256;1723;-43
2023/01/26 00:33:37;;;;;;;;;;;21.00;39.00;;;;;;444287;266;1946;-43
2023/01/26 00:35:43;;;;;;;;;;;21.00;38.40;;;;;;444600;267;1934;-43
2023/01/26 00:37:40;;;;;;;;;;;21.00;37.30;;;;;;451650;263;2460;-43
2023/01/26 00:39:41;;;;;;;;;;;21.00;36.00;;;;;;464738;256;1684;-43
2023/01/26 00:44:02;;;;;;;;;;;20.90;33.40;;;;;;462997;257;2211;-43
2023/01/26 00:46:03;;;;;;;;;;;20.90;33.40;;;;;;444304;266;2240;-43
2023/01/26 00:48:05;;;;;;;;;;;20.80;33.30;;;;;;451816;262;1797;-43
2023/01/26 00:50:06;;;;;;;;;;;20.80;33.40;;;;;;464890;256;1679;-43
2023/01/26 00:52:07;;;;;;;;;;;20.80;33.40;;;;;;463054;256;2437;-43
2023/01/26 00:54:09;;;;;;;;;;;20.80;33.30;;;;;;463104;256;1673;-43
2023/01/26 00:56:10;;;;;;;;;;;20.80;33.30;;;;;;444504;266;1926;-44
2023/01/26 00:58:11;;;;;;;;;;;20.80;33.30;;;;;;444362;267;1768;-43
2023/01/26 01:00:15;;;;;;;;;;;20.80;33.20;;;;;;444274;267;1985;-43
2023/01/26 01:02:14;;;;;;;;;;;20.80;33.20;;;;;;444354;267;2511;-43
2023/01/26 01:04:16;;;;;;;;;;;20.80;33.30;;;;;;451852;262;2205;-43
2023/01/26 01:06:17;;;;;;;;;;;20.80;33.20;;;;;;465022;256;2021;-43
2023/01/26 01:08:18;;;;;;;;;;;20.80;33.20;;;;;;463304;256;1664;-43
2023/01/26 01:10:20;;;;;;;;;;;20.70;33.30;;;;;;444359;266;1837;-43
2023/01/26 01:12:21;;;;;;;;;;;20.70;33.30;;;;;;451922;262;1928;-43
2023/01/26 01:14:22;;;;;;;;;;;20.70;33.30;;;;;;464670;256;2025;-42
2023/01/26 01:16:24;;;;;;;;;;;20.70;33.30;;;;;;444244;266;1685;-43
2023/01/26 01:18:25;;;;;;;;;;;20.70;33.30;;;;;;444315;267;1802;-43
2023/01/26 01:20:26;;;;;;;;;;;20.70;33.20;;;;;;444193;267;1939;-43
2023/01/26 01:22:27;;;;;;;;;;;20.70;33.20;;;;;;444192;267;1728;-43
2023/01/26 01:24:29;;;;;;;;;;;20.80;33.10;;;;;;451819;262;2205;-43
2023/01/26 01:26:30;;;;;;;;;;;21.10;32.80;;;;;;444552;267;2451;-43
2023/01/26 01:28:31;;;;;;;;;;;21.30;32.50;;;;;;451797;262;2222;-43
2023/01/26 01:30:33;;;;;;;;;;;21.40;32.20;;;;;;451741;262;1822;-44
2023/01/26 01:32:34;;;;;;;;;;;21.60;32.00;;;;;;464686;256;1658;-44
2023/01/26 01:34:35;;;;;;;;;;;21.70;31.90;;;;;;462985;256;1689;-44
2023/01/26 01:36:37;;;;;;;;;;;21.70;31.70;;;;;;444244;266;1703;-44
2023/01/26 01:38:38;;;;;;;;;;;21.90;31.60;;;;;;444340;267;1819;-43
2023/01/26 01:40:39;;;;;;;;;;;21.90;31.50;;;;;;444305;267;2257;-44
2023/01/26 01:42:41;;;;;;;;;;;22.00;31.40;;;;;;451959;262;1713;-44
2023/01/26 01:44:42;;;;;;;;;;;22.00;31.30;;;;;;464773;256;2222;-43
2023/01/26 01:46:43;;;;;;;;;;;22.10;31.20;;;;;;462980;256;2147;-44
2023/01/26 01:48:45;;;;;;;;;;;22.10;31.20;;;;;;463012;256;1967;-43
2023/01/26 01:50:46;;;;;;;;;;;22.20;31.20;;;;;;463046;256;1722;-44
2023/01/26 01:52:47;;;;;;;;;;;22.20;31.10;;;;;;444283;266;1899;-44
2023/01/26 01:54:49;;;;;;;;;;;22.20;31.00;;;;;;451755;262;1815;-43
2023/01/26 01:56:50;;;;;;;;;;;22.30;31.00;;;;;;444599;267;1982;-43
2023/01/26 01:58:52;;;;;;;;;;;22.30;30.90;;;;;;451892;262;1959;-44
2023/01/26 02:00:53;;;;;;;;;;;22.30;30.80;;;;;;444558;267;1677;-43
2023/01/26 02:03:10;;;;;;;;;;;22.40;30.80;;;;;;444221;267;1796;-43
2023/01/26 02:05:11;;;;;;;;;;;22.40;30.70;;;;;;444306;267;2209;-43
2023/01/26 02:07:12;;;;;;;;;;;22.40;30.70;;;;;;444407;267;2144;-44
2023/01/26 02:10:17;;;;;;;;;;;22.50;30.70;;;;;;451724;262;2108;-43
2023/01/26 02:11:15;;;;;;;;;;;22.50;30.70;;;;;;463184;256;1856;-43
2023/01/26 02:13:16;;;;;;;;;;;22.50;30.60;;;;;;464600;256;1614;-43
2023/01/26 02:15:18;;;;;;;;;;;22.60;30.60;;;;;;463281;256;1602;-44
2023/01/26 02:17:19;;;;;;;;;;;22.60;30.60;;;;;;462953;257;1888;-44
2023/01/26 02:19:20;;;;;;;;;;;22.60;30.50;;;;;;462892;256;1724;-44
2023/01/26 02:21:22;;;;;;;;;;;22.60;30.50;;;;;;463045;256;1959;-43
2023/01/26 02:23:25;;;;;;;;;;;22.70;30.50;;;;;;444272;266;1698;-43
2023/01/26 02:25:24;;;;;;;;;;;22.70;30.50;;;;;;451605;263;2385;-44
2023/01/26 02:27:26;;;;;;;;;;;22.70;30.40;;;;;;464851;256;2116;-44
2023/01/26 02:29:28;;;;;;;;;;;22.70;30.40;;;;;;462922;256;2294;-43
2023/01/26 02:31:29;;;;;;;;;;;22.70;30.30;;;;;;463000;256;2397;-44
2023/01/26 02:33:30;;;;;;;;;;;22.70;30.40;;;;;;463141;256;1694;-44
2023/01/26 02:35:31;;;;;;;;;;;22.80;30.40;;;;;;462961;256;1753;-44
2023/01/26 02:37:33;;;;;;;;;;;22.80;30.30;;;;;;462952;256;1668;-43
2023/01/26 02:39:34;;;;;;;;;;;22.80;30.30;;;;;;463088;256;2432;-43
2023/01/26 02:43:55;;;;;;;;;;;22.90;30.30;;;;;;444226;267;2186;-43
2023/01/26 02:45:56;;;;;;;;;;;22.90;30.30;;;;;;444325;267;1928;-43
2023/01/26 02:48:01;;;;;;;;;;;22.90;30.20;;;;;;444319;267;2365;-44
2023/01/26 02:49:59;;;;;;;;;;;22.90;30.20;;;;;;451615;263;2217;-43
2023/01/26 02:52:00;;;;;;;;;;;22.90;30.20;;;;;;464727;256;2921;-44
2023/01/26 02:54:01;;;;;;;;;;;22.90;30.20;;;;;;451800;261;2156;-44
2023/01/26 02:56:02;;;;;;;;;;;22.90;30.20;;;;;;451842;262;1864;-43
2023/01/26 02:58:04;;;;;;;;;;;23.00;30.20;;;;;;464905;256;2158;-43
2023/01/26 03:00:05;;;;;;;;;;;23.00;30.20;;;;;;463000;256;2156;-43
2023/01/26 03:02:06;;;;;;;;;;;23.00;30.10;;;;;;462997;256;2423;-43
2023/01/26 03:04:08;;;;;;;;;;;23.00;30.10;;;;;;463259;256;2196;-43
2023/01/26 03:06:09;;;;;;;;;;;23.00;30.10;;;;;;462986;256;2252;-43
2023/01/26 03:08:11;;;;;;;;;;;23.00;30.10;;;;;;463070;256;2184;-43
2023/01/26 03:10:12;;;;;;;;;;;23.00;30.10;;;;;;444268;266;1792;-43
2023/01/26 03:12:14;;;;;;;;;;;23.00;30.10;;;;;;444236;267;2711;-43
2023/01/26 03:14:15;;;;;;;;;;;23.10;30.10;;;;;;451855;262;2039;-44
2023/01/26 03:16:17;;;;;;;;;;;23.10;30.10;;;;;;464914;256;2428;-44
2023/01/26 03:27:45;;;;;;;;;;;23.20;30.10;;;;;;449040;264;2350;-44
2023/01/26 03:29:46;;;;;;;;;;;23.20;30.00;;;;;;448943;265;2233;-44
2023/01/26 03:31:48;;;;;;;;;;;23.20;30.00;;;;;;448940;265;2525;-44
2023/01/26 03:33:49;;;;;;;;;;;23.20;30.00;;;;;;449005;265;1812;-43
2023/01/26 03:35:50;;;;;;;;;;;23.20;30.00;;;;;;449055;265;2194;-44
2023/01/26 03:37:53;;;;;;;;;;;23.20;30.00;;;;;;440311;270;2062;-43
2023/01/26 03:56:17;;;;;;;;;;;23.30;30.00;;;;;;449033;264;1800;-44
2023/01/26 03:58:16;;;;;;;;;;;23.30;30.00;;;;;;440348;270;2477;-43
2023/01/26 04:00:18;;;;;;;;;;;23.30;30.00;;;;;;440248;270;2026;-44
2023/01/26 04:09:17;;;;;;;;;;;23.30;30.00;;;;;;454132;262;1930;-44
2023/01/26 04:11:18;;;;;;;;;;;23.40;30.00;;;;;;454082;261;1701;-44
2023/01/26 04:22:39;;;;;;;;;;;23.40;30.00;;;;;;454141;262;1929;-44
2023/01/26 04:24:39;;;;;;;;;;;23.40;30.00;;;;;;454003;261;2430;-44
2023/01/26 04:26:41;;;;;;;;;;;23.40;30.00;;;;;;454069;261;2447;-44
2023/01/26 04:28:42;;;;;;;;;;;23.40;30.00;;;;;;454081;261;1912;-44
2023/01/26 04:30:43;;;;;;;;;;;23.40;30.00;;;;;;454184;261;1724;-44
2023/01/26 04:32:45;;;;;;;;;;;23.40;29.90;;;;;;454196;261;2009;-44
2023/01/26 04:34:46;;;;;;;;;;;23.40;29.90;;;;;;454168;261;1767;-44
2023/01/26 04:36:48;;;;;;;;;;;23.50;30.00;;;;;;454156;261;2206;-44
2023/01/26 04:38:49;;;;;;;;;;;23.40;29.90;;;;;;454167;261;1695;-44
2023/01/26 04:40:50;;;;;;;;;;;23.40;29.90;;;;;;454298;261;2062;-44
2023/01/26 04:42:52;;;;;;;;;;;23.40;29.90;;;;;;454195;261;1916;-44
2023/01/26 04:44:53;;;;;;;;;;;23.50;29.90;;;;;;454397;261;2208;-44
2023/01/26 04:46:54;;;;;;;;;;;23.50;29.90;;;;;;454217;261;2466;-43
2023/01/26 04:48:56;;;;;;;;;;;23.50;29.90;;;;;;454172;261;1888;-44
2023/01/26 04:50:57;;;;;;;;;;;23.50;29.90;;;;;;454008;261;1994;-44
2023/01/26 04:52:58;;;;;;;;;;;23.50;29.90;;;;;;454013;261;2520;-44
2023/01/26 04:55:00;;;;;;;;;;;23.50;29.90;;;;;;453983;261;2297;-43
2023/01/26 04:57:01;;;;;;;;;;;23.50;29.90;;;;;;453953;261;2127;-44
2023/01/26 04:59:02;;;;;;;;;;;23.50;29.90;;;;;;453958;261;1531;-44
2023/01/26 05:01:03;;;;;;;;;;;23.50;29.90;;;;;;453903;261;2429;-44
2023/01/26 05:03:05;;;;;;;;;;;23.50;29.90;;;;;;453902;261;2764;-44
2023/01/26 05:05:06;;;;;;;;;;;23.60;29.90;;;;;;453911;261;2212;-44
2023/01/26 05:07:07;;;;;;;;;;;23.60;29.90;;;;;;453970;261;1750;-44
2023/01/26 05:09:09;;;;;;;;;;;23.60;29.90;;;;;;453845;261;1734;-44
2023/01/26 05:11:10;;;;;;;;;;;23.60;29.90;;;;;;453935;261;1910;-44
2023/01/26 05:13:11;;;;;;;;;;;23.60;29.90;;;;;;453853;261;1814;-44
2023/01/26 05:15:13;;;;;;;;;;;23.50;29.90;;;;;;453769;261;1861;-44
2023/01/26 05:17:14;;;;;;;;;;;23.60;29.90;;;;;;453815;261;1964;-44
2023/01/26 05:19:15;;;;;;;;;;;23.60;29.90;;;;;;453832;261;1790;-44
2023/01/26 05:21:17;;;;;;;;;;;23.60;29.90;;;;;;453928;261;1817;-43
2023/01/26 05:23:18;;;;;;;;;;;23.60;29.90;;;;;;453993;261;3274;-43
2023/01/26 05:25:19;;;;;;;;;;;23.60;29.90;;;;;;453911;261;2224;-44
2023/01/26 05:27:21;;;;;;;;;;;23.60;29.90;;;;;;453955;261;1748;-44
2023/01/26 05:29:22;;;;;;;;;;;23.60;29.90;;;;;;454230;261;2181;-44
2023/01/26 05:31:23;;;;;;;;;;;23.60;29.80;;;;;;454262;261;1781;-44
2023/01/26 05:33:25;;;;;;;;;;;23.60;29.80;;;;;;454063;261;1801;-44
2023/01/26 05:35:26;;;;;;;;;;;23.60;29.80;;;;;;454224;261;2188;-44
2023/01/26 05:37:27;;;;;;;;;;;23.70;29.90;;;;;;454259;261;1675;-43
2023/01/26 05:39:29;;;;;;;;;;;23.60;29.90;;;;;;453981;261;1720;-44
2023/01/26 05:41:30;;;;;;;;;;;23.70;29.90;;;;;;454068;261;1684;-44
2023/01/26 05:43:31;;;;;;;;;;;23.70;29.90;;;;;;454014;261;1870;-43
2023/01/26 05:45:33;;;;;;;;;;;23.60;29.90;;;;;;453971;261;2273;-44
2023/01/26 05:47:34;;;;;;;;;;;23.50;30.00;;;;;;454137;261;2161;-43
2023/01/26 05:49:37;;;;;;;;;;;23.30;30.10;;;;;;454086;261;1698;-43
2023/01/26 05:51:38;;;;;;;;;;;23.20;30.30;;;;;;454015;262;2464;-44
2023/01/26 05:53:39;;;;;;;;;;;23.00;30.50;;;;;;453920;261;1956;-43
2023/01/26 05:55:40;;;;;;;;;;;22.90;30.70;;;;;;453902;261;1696;-43
2023/01/26 05:57:42;;;;;;;;;;;22.80;30.90;;;;;;453827;261;2428;-44
2023/01/26 05:59:43;;;;;;;;;;;22.60;31.00;;;;;;453918;261;2123;-44
2023/01/26 06:01:44;;;;;;;;;;;22.50;31.30;;;;;;453761;261;1755;-43
2023/01/26 06:03:46;;;;;;;;;;;22.40;31.30;;;;;;454018;261;2203;-43
2023/01/26 06:05:47;;;;;;;;;;;22.40;31.50;;;;;;453807;261;2211;-43
2023/01/26 06:07:48;;;;;;;;;;;22.30;31.60;;;;;;453783;261;1694;-43
2023/01/26 06:09:50;;;;;;;;;;;22.30;31.60;;;;;;453838;261;1719;-43
2023/01/26 06:11:51;;;;;;;;;;;22.20;31.80;;;;;;453968;261;1896;-43
2023/01/26 06:13:52;;;;;;;;;;;22.10;31.70;;;;;;453851;261;1681;-43
2023/01/26 06:15:54;;;;;;;;;;;22.10;31.80;;;;;;453869;261;1730;-43
2023/01/26 06:17:55;;;;;;;;;;;22.10;31.90;;;;;;444418;266;1967;-43
2023/01/26 06:19:56;;;;;;;;;;;22.10;31.90;;;;;;451434;262;1898;-43
2023/01/26 06:21:58;;;;;;;;;;;22.00;31.90;;;;;;443920;267;1807;-43
2023/01/26 06:23:59;;;;;;;;;;;22.00;32.00;;;;;;451517;262;2073;-43
2023/01/26 06:26:00;;;;;;;;;;;21.90;32.00;;;;;;464401;256;2150;-43
2023/01/26 06:28:01;;;;;;;;;;;21.90;32.10;;;;;;443853;266;1760;-43
2023/01/26 06:30:04;;;;;;;;;;;21.90;32.10;;;;;;443851;267;1976;-43
2023/01/26 06:32:05;;;;;;;;;;;21.90;32.20;;;;;;443909;267;2126;-43
2023/01/26 06:34:06;;;;;;;;;;;21.90;32.20;;;;;;444001;267;1716;-43
2023/01/26 06:36:08;;;;;;;;;;;21.90;32.20;;;;;;443940;267;1972;-44
2023/01/26 06:38:09;;;;;;;;;;;21.80;32.20;;;;;;443984;267;2355;-43
2023/01/26 06:40:10;;;;;;;;;;;21.80;32.30;;;;;;451640;262;1668;-43
2023/01/26 06:42:11;;;;;;;;;;;21.80;32.30;;;;;;464523;256;1787;-43
2023/01/26 06:44:13;;;;;;;;;;;21.70;32.40;;;;;;443963;266;1623;-43
2023/01/26 06:46:14;;;;;;;;;;;21.70;32.40;;;;;;443946;267;2311;-43
2023/01/26 06:48:15;;;;;;;;;;;21.60;32.40;;;;;;451444;262;2017;-43
2023/01/26 06:50:17;;;;;;;;;;;21.60;32.40;;;;;;464424;256;1936;-43
2023/01/26 06:52:18;;;;;;;;;;;21.60;32.50;;;;;;462579;256;2038;-43
2023/01/26 06:54:19;;;;;;;;;;;21.60;32.60;;;;;;462584;256;1864;-43
2023/01/26 06:56:21;;;;;;;;;;;21.60;32.60;;;;;;462616;256;1715;-43
2023/01/26 06:58:22;;;;;;;;;;;21.50;32.50;;;;;;462652;256;1695;-43
2023/01/26 07:00:23;;;;;;;;;;;21.50;32.50;;;;;;444046;266;1932;-43
2023/01/26 07:02:25;;;;;;;;;;;21.50;32.60;;;;;;443882;267;1686;-43
2023/01/26 07:04:26;;;;;;;;;;;21.40;32.60;;;;;;451669;262;1910;-43
2023/01/26 07:06:27;;;;;;;;;;;21.40;32.70;;;;;;464614;256;2193;-44
2023/01/26 07:08:29;;;;;;;;;;;21.40;32.70;;;;;;462567;256;1744;-43
2023/01/26 07:10:30;;;;;;;;;;;21.40;32.70;;;;;;462701;256;2837;-43
2023/01/26 07:12:31;;;;;;;;;;;21.40;32.70;;;;;;462885;256;1638;-43
2023/01/26 07:14:33;;;;;;;;;;;21.30;32.60;;;;;;444095;266;2283;-44
2023/01/26 07:16:34;;;;;;;;;;;21.30;32.70;;;;;;451731;263;2121;-44
2023/01/26 07:18:36;;;;;;;;;;;21.30;32.70;;;;;;464477;256;2364;-44
2023/01/26 07:20:37;;;;;;;;;;;21.30;32.60;;;;;;462698;256;1975;-43
2023/01/26 07:22:38;;;;;;;;;;;21.40;32.60;;;;;;462607;256;1943;-43
2023/01/26 07:24:40;;;;;;;;;;;21.40;32.50;;;;;;462641;256;1686;-43
2023/01/26 07:26:41;;;;;;;;;;;21.40;32.50;;;;;;451546;261;2177;-43
2023/01/26 07:28:42;;;;;;;;;;;21.40;32.50;;;;;;443886;267;2276;-44
2023/01/26 07:30:44;;;;;;;;;;;21.40;32.50;;;;;;443998;267;1724;-43
2023/01/26 07:32:45;;;;;;;;;;;21.30;32.50;;;;;;443783;267;2909;-43
2023/01/26 07:34:47;;;;;;;;;;;21.30;32.50;;;;;;443988;267;1726;-43
2023/01/26 07:36:48;;;;;;;;;;;21.30;32.40;;;;;;451453;263;2144;-43
2023/01/26 07:38:49;;;;;;;;;;;21.30;32.40;;;;;;464417;256;1750;-43
2023/01/26 07:40:50;;;;;;;;;;;21.30;32.40;;;;;;462787;256;1456;-43
2023/01/26 07:42:52;;;;;;;;;;;21.40;32.50;;;;;;462800;256;1823;-43
2023/01/26 07:44:53;;;;;;;;;;;21.30;32.40;;;;;;462590;256;2155;-43
2023/01/26 07:46:54;;;;;;;;;;;21.30;32.40;;;;;;443880;266;2179;-43
2023/01/26 07:48:56;;;;;;;;;;;21.30;32.40;;;;;;443573;267;1579;-43
2023/01/26 07:50:57;;;;;;;;;;;21.40;32.40;;;;;;451252;262;2472;-43
2023/01/26 07:52:58;;;;;;;;;;;21.40;32.40;;;;;;464326;256;1687;-43
2023/01/26 07:55:00;;;;;;;;;;;21.30;32.30;;;;;;443922;266;1380;-43
2023/01/26 07:57:01;;;;;;;;;;;21.40;32.30;;;;;;443914;267;2163;-43
2023/01/26 07:59:02;;;;;;;;;;;21.60;32.00;;;;;;444020;267;1824;-43
2023/01/26 08:01:04;;;;;;;;;;;21.80;31.50;;;;;;443832;267;1974;-43
2023/01/26 08:03:05;;;;;;;;;;;22.00;31.30;;;;;;443971;267;1714;-43
2023/01/26 08:05:07;;;;;;;;;;;22.10;30.90;;;;;;444111;267;1671;-43
2023/01/26 08:07:08;;;;;;;;;;;22.20;30.80;;;;;;451611;262;2166;-43
2023/01/26 08:09:09;;;;;;;;;;;22.30;30.60;;;;;;464736;256;1390;-43
2023/01/26 08:11:11;;;;;;;;;;;22.40;30.30;;;;;;462789;256;3422;-43
2023/01/26 08:13:12;;;;;;;;;;;22.60;30.20;;;;;;462913;256;1466;-43
2023/01/26 08:15:13;;;;;;;;;;;22.70;30.20;;;;;;462891;256;1525;-43
2023/01/26 08:17:16;;;;;;;;;;;22.70;30.00;;;;;;462872;256;1484;-43
2023/01/26 08:19:16;;;;;;;;;;;22.80;30.00;;;;;;462902;256;1763;-43
2023/01/26 08:21:18;;;;;;;;;;;22.90;30.00;;;;;;444090;266;1737;-44
2023/01/26 08:23:19;;;;;;;;;;;22.90;30.00;;;;;;451738;262;2314;-43
2023/01/26 08:25:20;;;;;;;;;;;23.00;29.90;;;;;;464642;256;1702;-43
2023/01/26 08:27:22;;;;;;;;;;;23.00;29.90;;;;;;444126;266;2175;-44
2023/01/26 08:29:23;;;;;;;;;;;23.10;29.80;;;;;;451501;262;1742;-43
2023/01/26 08:31:26;;;;;;;;;;;23.10;29.90;;;;;;464484;256;1909;-43
2023/01/26 08:33:26;;;;;;;;;;;23.20;29.80;;;;;;462848;257;2132;-44
2023/01/26 08:35:27;;;;;;;;;;;23.20;29.80;;;;;;463014;256;1755;-43
2023/01/26 08:37:29;;;;;;;;;;;23.20;29.70;;;;;;462960;256;1874;-43
2023/01/26 08:39:30;;;;;;;;;;;23.30;29.70;;;;;;444187;266;1732;-44
2023/01/26 08:41:32;;;;;;;;;;;23.30;29.80;;;;;;444195;267;1691;-43
2023/01/26 08:43:33;;;;;;;;;;;23.40;29.60;;;;;;444149;267;1747;-44
2023/01/26 08:45:34;;;;;;;;;;;23.40;29.60;;;;;;444256;267;1783;-44
2023/01/26 08:47:35;;;;;;;;;;;23.40;29.70;;;;;;444101;267;2146;-43
2023/01/26 08:49:37;;;;;;;;;;;23.50;29.70;;;;;;451829;262;3164;-44
2023/01/26 08:51:38;;;;;;;;;;;23.50;29.60;;;;;;464599;256;1819;-43
2023/01/26 08:53:39;;;;;;;;;;;23.50;29.90;;;;;;444171;266;1764;-43
2023/01/26 08:55:41;;;;;;;;;;;23.50;29.70;;;;;;444040;267;1683;-43
2023/01/26 08:57:42;;;;;;;;;;;23.60;29.80;;;;;;444062;267;1610;-43
2023/01/26 08:59:43;;;;;;;;;;;23.60;29.70;;;;;;451621;262;1714;-44
2023/01/26 09:01:45;;;;;;;;;;;23.60;29.70;;;;;;464444;256;1663;-44
2023/01/26 09:03:46;;;;;;;;;;;23.70;29.80;;;;;;462870;256;2378;-43
2023/01/26 09:05:47;;;;;;;;;;;23.70;29.80;;;;;;462861;256;2233;-44
2023/01/26 09:07:49;;;;;;;;;;;23.80;29.90;;;;;;462620;256;2211;-44
2023/01/26 09:09:50;;;;;;;;;;;23.70;30.10;;;;;;444079;266;1793;-44
2023/01/26 09:11:51;;;;;;;;;;;23.70;30.00;;;;;;451417;262;1763;-43
2023/01/26 09:13:55;;;;;;;;;;;23.80;29.80;;;;;;464401;256;1767;-44
2023/01/26 09:15:54;;;;;;;;;;;23.80;30.00;;;;;;462593;257;2285;-44
2023/01/26 09:17:55;;;;;;;;;;;23.80;30.00;;;;;;443971;266;1934;-43
2023/01/26 09:19:57;;;;;;;;;;;23.80;30.10;;;;;;451332;262;1716;-43
2023/01/26 09:21:58;;;;;;;;;;;23.90;30.00;;;;;;464252;256;1607;-43
2023/01/26 09:24:00;;;;;;;;;;;23.90;30.80;;;;;;443769;266;2053;-43
2023/01/26 09:26:01;;;;;;;;;;;23.80;30.60;;;;;;451301;262;1700;-43
2023/01/26 09:28:02;;;;;;;;;;;23.70;30.50;;;;;;464284;256;2557;-43
2023/01/26 09:30:03;;;;;;;;;;;23.50;30.80;;;;;;462589;256;2200;-43
2023/01/26 09:32:05;;;;;;;;;;;23.40;31.10;;;;;;451408;261;1793;-43
2023/01/26 09:34:06;;;;;;;;;;;23.20;31.40;;;;;;451451;262;2343;-43
2023/01/26 09:36:07;;;;;;;;;;;23.10;31.70;;;;;;464420;256;1455;-43
2023/01/26 09:38:09;;;;;;;;;;;23.00;31.70;;;;;;462827;256;1728;-43
2023/01/26 09:40:10;;;;;;;;;;;22.80;32.10;;;;;;462831;256;1569;-43
2023/01/26 09:42:11;;;;;;;;;;;22.80;32.30;;;;;;461350;256;1752;-43
2023/01/26 09:44:13;;;;;;;;;;;22.70;32.40;;;;;;462807;256;1604;-43
2023/01/26 09:46:14;;;;;;;;;;;22.60;32.50;;;;;;462889;256;2652;-43
2023/01/26 09:48:15;;;;;;;;;;;22.60;32.60;;;;;;462777;256;1680;-43
2023/01/26 09:50:17;;;;;;;;;;;22.60;32.70;;;;;;462825;256;1952;-43
2023/01/26 09:52:18;;;;;;;;;;;22.50;32.70;;;;;;462836;256;2022;-43
2023/01/26 09:54:20;;;;;;;;;;;22.50;33.00;;;;;;462839;256;2499;-43
2023/01/26 09:56:21;;;;;;;;;;;22.40;33.00;;;;;;462724;256;1840;-43
2023/01/26 09:58:22;;;;;;;;;;;22.40;33.10;;;;;;462595;256;1714;-43
2023/01/26 10:00:24;;;;;;;;;;;22.30;33.20;;;;;;462459;256;1584;-43
2023/01/26 10:02:25;;;;;;;;;;;22.30;33.20;;;;;;462501;256;2012;-43
2023/01/26 10:04:28;;;;;;;;;;;22.30;33.40;;;;;;451354;261;1874;-43
2023/01/26 10:06:28;;;;;;;;;;;22.30;33.50;;;;;;463955;256;2250;-43
2023/01/26 10:08:29;;;;;;;;;;;22.20;33.40;;;;;;464249;255;2389;-43
2023/01/26 10:10:30;;;;;;;;;;;22.20;33.60;;;;;;462329;256;1794;-43
2023/01/26 10:12:32;;;;;;;;;;;22.20;33.70;;;;;;462539;256;1669;-43
2023/01/26 10:14:33;;;;;;;;;;;22.20;33.70;;;;;;462380;256;1961;-43
2023/01/26 10:16:34;;;;;;;;;;;22.20;33.60;;;;;;462467;256;1997;-44
2023/01/26 10:18:36;;;;;;;;;;;22.20;33.70;;;;;;443748;266;1988;-43
2023/01/26 10:20:37;;;;;;;;;;;22.20;33.70;;;;;;443720;267;2184;-43
2023/01/26 10:22:38;;;;;;;;;;;22.20;33.70;;;;;;451224;262;1794;-43
2023/01/26 10:24:40;;;;;;;;;;;22.10;33.80;;;;;;464362;256;1583;-43
2023/01/26 10:26:41;;;;;;;;;;;22.00;33.70;;;;;;443741;266;2190;-43
2023/01/26 10:28:43;;;;;;;;;;;22.10;33.70;;;;;;443825;267;1986;-43
2023/01/26 10:30:44;;;;;;;;;;;22.10;33.70;;;;;;443685;267;1819;-43
2023/01/26 10:32:45;;;;;;;;;;;22.00;33.60;;;;;;443843;267;1731;-43
2023/01/26 10:34:46;;;;;;;;;;;22.00;33.70;;;;;;443846;267;1707;-43
2023/01/26 10:36:48;;;;;;;;;;;22.00;33.80;;;;;;451453;262;1727;-43
2023/01/26 10:38:49;;;;;;;;;;;21.90;33.70;;;;;;464424;256;1724;-43
2023/01/26 10:40:51;;;;;;;;;;;21.90;33.60;;;;;;443869;266;1724;-43
2023/01/26 10:42:52;;;;;;;;;;;21.90;33.60;;;;;;451644;262;1998;-43
2023/01/26 10:44:53;;;;;;;;;;;21.90;33.70;;;;;;444408;267;1631;-44
2023/01/26 10:46:54;;;;;;;;;;;21.80;33.60;;;;;;451450;262;2221;-43
2023/01/26 10:48:56;;;;;;;;;;;21.80;33.70;;;;;;443874;267;1699;-43
2023/01/26 10:50:57;;;;;;;;;;;21.80;33.70;;;;;;443877;267;1895;-43
2023/01/26 10:52:58;;;;;;;;;;;21.80;33.70;;;;;;451565;262;1956;-43
2023/01/26 10:55:00;;;;;;;;;;;21.80;33.60;;;;;;464404;256;1632;-43
2023/01/26 10:57:01;;;;;;;;;;;21.80;33.60;;;;;;462643;256;1749;-43
2023/01/26 10:59:02;;;;;;;;;;;21.80;33.60;;;;;;462713;256;1695;-44
2023/01/26 11:01:04;;;;;;;;;;;21.80;33.50;;;;;;462581;256;1962;-44
2023/01/26 11:03:06;;;;;;;;;;;21.80;33.40;;;;;;462411;256;1858;-43
2023/01/26 11:05:07;;;;;;;;;;;21.70;33.40;;;;;;462506;256;2209;-43
2023/01/26 11:07:08;;;;;;;;;;;21.80;33.40;;;;;;462625;256;2191;-43
2023/01/26 11:09:09;;;;;;;;;;;21.70;33.30;;;;;;462546;256;1916;-43
2023/01/26 11:11:11;;;;;;;;;;;21.70;33.30;;;;;;462603;256;2171;-43
2023/01/26 11:13:12;;;;;;;;;;;21.70;33.20;;;;;;462659;256;1862;-43
2023/01/26 11:15:13;;;;;;;;;;;21.70;33.30;;;;;;462484;256;2252;-43
2023/01/26 11:17:15;;;;;;;;;;;21.70;33.30;;;;;;443816;266;1864;-43
2023/01/26 11:19:16;;;;;;;;;;;21.60;33.30;;;;;;451389;262;1837;-43
2023/01/26 11:21:17;;;;;;;;;;;21.60;33.30;;;;;;464253;256;1952;-43
2023/01/26 11:23:19;;;;;;;;;;;21.60;33.20;;;;;;462553;256;1896;-44
2023/01/26 11:25:20;;;;;;;;;;;21.60;33.20;;;;;;443720;266;1646;-43
2023/01/26 11:27:21;;;;;;;;;;;21.60;33.20;;;;;;451357;262;2216;-43
2023/01/26 11:29:23;;;;;;;;;;;21.60;33.20;;;;;;464108;256;1898;-43
2023/01/26 11:31:29;;;;;;;;;;;21.60;33.20;;;;;;462328;256;1938;-43
2023/01/26 11:33:25;;;;;;;;;;;21.50;33.10;;;;;;462080;257;2037;-43
